createdAt,value
2023-03-02T00:02:39.563Z,82.22
2023-03-02T00:05:41.943Z,82.22
2023-03-02T00:08:44.217Z,82.76
2023-03-02T00:11:46.064Z,82.91
2023-03-02T00:14:47.659Z,83.14
2023-03-02T00:17:49.329Z,83.12
2023-03-02T00:20:51.021Z,83.43
2023-03-02T00:23:53.075Z,82.93
2023-03-02T00:26:54.690Z,83.17
2023-03-02T00:29:57.658Z,83.05
2023-03-02T00:32:59.355Z,83.32
2023-03-02T00:36:01.788Z,83.40
2023-03-02T00:39:04.670Z,83.90
2023-03-02T00:42:06.460Z,83.41
2023-03-02T00:45:08.749Z,84.39
2023-03-02T00:48:10.813Z,84.06
2023-03-02T00:51:13.650Z,84.40
2023-03-02T00:54:15.302Z,85.05
2023-03-02T00:57:17.065Z,85.05
2023-03-02T01:00:19.263Z,84.88
2023-03-02T01:03:22.507Z,85.92
2023-03-02T01:06:24.314Z,85.70
2023-03-02T01:09:26.994Z,85.00
2023-03-02T01:12:28.689Z,85.53
2023-03-02T01:15:30.441Z,86.17
2023-03-02T01:18:34.839Z,87.26
2023-03-02T01:21:36.802Z,87.07
2023-03-02T01:24:38.442Z,86.96
2023-03-02T01:27:40.179Z,87.43
2023-03-02T01:30:41.858Z,87.07
2023-03-02T01:33:44.551Z,86.82
2023-03-02T01:36:46.197Z,87.80
2023-03-02T01:39:47.822Z,87.55
2023-03-02T01:42:57.993Z,88.56
2023-03-02T01:46:03.286Z,88.40
2023-03-02T01:49:17.235Z,89.01
2023-03-02T01:52:33.527Z,88.56
2023-03-02T01:55:38.934Z,89.71
2023-03-02T01:58:40.754Z,89.84
2023-03-02T02:01:45.914Z,89.73
2023-03-02T02:04:49.969Z,89.72
2023-03-02T02:07:51.716Z,89.90
2023-03-02T02:10:54.636Z,90.13
2023-03-02T02:13:59.806Z,89.94
2023-03-02T02:17:01.946Z,89.70
2023-03-02T02:20:24.039Z,89.82
2023-03-02T02:23:27.555Z,89.60
2023-03-02T02:26:35.362Z,90.48
2023-03-02T02:29:49.297Z,90.58
2023-03-02T02:32:53.819Z,92.08
2023-03-02T02:36:01.636Z,93.30
2023-03-02T02:39:07.340Z,93.22
2023-03-02T02:42:15.830Z,93.55
2023-03-02T02:45:19.291Z,92.98
2023-03-02T02:48:24.583Z,92.97
2023-03-02T02:51:28.757Z,92.85
2023-03-02T02:54:32.087Z,93.89
2023-03-02T02:57:33.894Z,93.28
2023-03-02T03:00:37.675Z,94.17
2023-03-02T03:03:39.510Z,95.08
2023-03-02T03:07:02.432Z,95.20
2023-03-02T03:10:21.990Z,95.00
2023-03-02T03:13:23.633Z,95.79
2023-03-02T03:16:28.293Z,96.24
2023-03-02T03:19:32.333Z,95.79
2023-03-02T03:22:36.953Z,96.34
2023-03-02T03:25:40.908Z,96.23
2023-03-02T03:28:43.893Z,96.47
2023-03-02T03:31:45.920Z,96.03
2023-03-02T03:34:48.980Z,95.87
2023-03-02T03:37:57.303Z,97.00
2023-03-02T03:40:59.489Z,96.85
2023-03-02T03:44:01.398Z,96.82
2023-03-02T03:47:05.200Z,96.97
2023-03-02T03:50:08.400Z,96.87
2023-03-02T03:53:10.006Z,97.27
2023-03-02T03:56:12.079Z,97.14
2023-03-02T03:59:18.071Z,97.80
2023-03-02T04:02:25.308Z,97.62
2023-03-02T04:05:27.605Z,97.69
2023-03-02T04:08:29.449Z,98.96
2023-03-02T04:11:37.250Z,99.57
2023-03-02T04:14:39.573Z,100.00
2023-03-02T04:17:45.023Z,100.00
2023-03-02T04:20:48.709Z,100.00
2023-03-02T04:23:50.504Z,100.00
2023-03-02T04:26:52.412Z,100.00
2023-03-02T04:29:55.451Z,100.00
2023-03-02T04:32:57.728Z,100.00
2023-03-02T04:36:02.156Z,100.00
2023-03-02T04:39:04.855Z,100.00
2023-03-02T04:42:06.465Z,100.00
2023-03-02T04:45:08.418Z,99.75
2023-03-02T04:48:10.096Z,100.00
2023-03-02T04:51:27.125Z,100.00
2023-03-02T04:54:28.852Z,99.60
2023-03-02T04:57:30.771Z,99.82
2023-03-02T05:00:34.226Z,99.66
2023-03-02T05:03:36.157Z,100.00
2023-03-02T05:06:37.780Z,99.92
2023-03-02T05:09:39.418Z,100.00
2023-03-02T05:12:54.711Z,99.85
2023-03-02T05:15:58.317Z,100.00
2023-03-02T05:19:00.527Z,100.00
2023-03-02T05:22:02.451Z,98.81
2023-03-02T05:25:05.095Z,99.97
2023-03-02T05:28:06.847Z,100.00
2023-03-02T05:31:09.434Z,100.00
2023-03-02T05:34:13.728Z,100.00
2023-03-02T05:37:15.470Z,100.00
2023-03-02T05:40:18.914Z,100.00
2023-03-02T05:43:23.454Z,100.00
2023-03-02T05:46:26.460Z,100.00
2023-03-02T05:49:28.048Z,100.00
2023-03-02T05:52:29.800Z,100.00
2023-03-02T05:55:36.913Z,100.00
2023-03-02T05:58:38.597Z,100.00
2023-03-02T06:01:41.400Z,100.00
2023-03-02T06:04:43.285Z,100.00
2023-03-02T06:07:45.605Z,100.00
2023-03-02T06:10:47.865Z,100.00
2023-03-02T06:13:49.510Z,100.00
2023-03-02T06:16:51.307Z,100.00
2023-03-02T06:19:53.235Z,100.00
2023-03-02T06:22:55.151Z,100.00
2023-03-02T06:25:58.156Z,100.00
2023-03-02T06:28:59.761Z,100.00
2023-03-02T06:32:01.526Z,100.00
2023-03-02T06:35:05.112Z,100.00
2023-03-02T06:38:06.818Z,100.00
2023-03-02T06:41:08.543Z,100.00
2023-03-02T06:44:10.747Z,100.00
2023-03-02T06:47:12.416Z,100.00
2023-03-02T06:50:14.051Z,100.00
2023-03-02T06:53:18.413Z,100.00
2023-03-02T06:56:20.113Z,100.00
2023-03-02T06:59:21.712Z,100.00
2023-03-02T07:02:24.331Z,100.00
2023-03-02T07:05:26.058Z,100.00
2023-03-02T07:08:28.318Z,100.00
2023-03-02T07:11:30.378Z,100.00
2023-03-02T07:14:32.332Z,100.00
2023-03-02T07:17:33.967Z,100.00
2023-03-02T07:20:35.702Z,100.00
2023-03-02T07:23:37.591Z,100.00
2023-03-02T07:26:39.262Z,100.00
2023-03-02T07:29:40.914Z,100.00
2023-03-02T07:32:42.619Z,99.45
2023-03-02T07:35:44.412Z,100.00
2023-03-02T07:38:46.259Z,100.00
2023-03-02T07:41:48.047Z,99.49
2023-03-02T07:44:52.798Z,99.41
2023-03-02T07:47:54.383Z,99.30
2023-03-02T07:51:00.444Z,98.39
2023-03-02T07:54:04.804Z,98.07
2023-03-02T07:57:06.546Z,98.51
2023-03-02T08:00:09.093Z,97.81
2023-03-02T08:03:13.869Z,98.29
2023-03-02T08:06:16.094Z,97.98
2023-03-02T08:09:18.224Z,100.00
2023-03-02T08:12:19.814Z,99.41
2023-03-02T08:15:21.466Z,99.38
2023-03-02T08:18:23.084Z,97.37
2023-03-02T08:21:26.340Z,98.38
2023-03-02T08:24:27.906Z,95.91
2023-03-02T08:27:29.634Z,96.26
2023-03-02T08:30:31.285Z,98.11
2023-03-02T08:33:33.228Z,96.08
2023-03-02T08:36:35.361Z,95.81
2023-03-02T08:39:37.078Z,94.71
2023-03-02T08:42:38.744Z,93.66
2023-03-02T08:45:40.431Z,94.87
2023-03-02T08:48:42.104Z,95.41
2023-03-02T08:51:44.898Z,95.34
2023-03-02T08:54:46.786Z,92.94
2023-03-02T08:57:49.164Z,92.87
2023-03-02T09:00:50.920Z,92.99
2023-03-02T09:03:52.837Z,92.82
2023-03-02T09:06:54.456Z,92.94
2023-03-02T09:09:56.115Z,91.83
2023-03-02T09:12:57.816Z,90.12
2023-03-02T09:16:00.723Z,90.99
2023-03-02T09:19:02.791Z,91.62
2023-03-02T09:22:04.471Z,89.58
2023-03-02T09:25:07.033Z,89.37
2023-03-02T09:28:08.688Z,90.19
2023-03-02T09:31:11.646Z,88.62
2023-03-02T09:34:13.356Z,88.53
2023-03-02T09:37:15.014Z,88.39
2023-03-02T09:40:20.743Z,87.99
2023-03-02T09:43:37.556Z,87.08
2023-03-02T09:46:46.239Z,87.38
2023-03-02T09:50:09.291Z,85.41
2023-03-02T09:53:29.307Z,86.62
2023-03-02T09:56:32.571Z,86.91
2023-03-02T09:59:47.874Z,86.11
2023-03-02T10:03:02.426Z,87.14
2023-03-02T10:06:07.009Z,86.05
2023-03-02T10:09:10.196Z,86.29
2023-03-02T10:12:36.744Z,85.78
2023-03-02T10:15:53.011Z,84.58
2023-03-02T10:18:57.326Z,84.80
2023-03-02T10:22:12.214Z,84.75
2023-03-02T10:25:48.687Z,83.98
2023-03-02T10:29:03.377Z,84.53
2023-03-02T10:32:18.616Z,83.79
2023-03-02T10:35:23.280Z,84.30
2023-03-02T10:38:25.215Z,83.18
2023-03-02T10:42:06.938Z,80.86
2023-03-02T10:45:44.269Z,80.22
2023-03-02T10:48:50.271Z,81.29
2023-03-02T10:52:16.143Z,79.67
2023-03-02T10:55:18.165Z,79.06
2023-03-02T10:58:29.492Z,78.28
2023-03-02T11:01:31.714Z,78.43
2023-03-02T11:04:33.492Z,78.21
2023-03-02T11:07:35.170Z,77.98
2023-03-02T11:10:50.712Z,77.75
2023-03-02T11:13:52.681Z,77.29
2023-03-02T11:16:54.719Z,78.26
2023-03-02T11:19:56.367Z,76.90
2023-03-02T11:23:11.922Z,77.78
2023-03-02T11:26:30.896Z,76.92
2023-03-02T11:29:41.183Z,78.37
2023-03-02T11:33:03.180Z,76.32
2023-03-02T11:36:31.194Z,75.45
2023-03-02T11:39:54.930Z,74.66
2023-03-02T11:42:59.732Z,74.89
2023-03-02T11:46:13.789Z,74.05
2023-03-02T11:49:34.961Z,74.03
2023-03-02T11:52:46.488Z,75.41
2023-03-02T11:55:50.705Z,74.93
2023-03-02T11:58:59.623Z,73.51
2023-03-02T12:02:02.273Z,73.47
2023-03-02T12:05:08.449Z,74.33
2023-03-02T12:08:19.269Z,73.30
2023-03-02T12:11:20.904Z,72.77
2023-03-02T12:14:43.849Z,72.26
2023-03-02T12:17:45.577Z,72.77
2023-03-02T12:21:18.995Z,72.54
2023-03-02T12:24:29.511Z,72.88
2023-03-02T12:27:39.823Z,71.83
2023-03-02T12:30:41.488Z,72.57
2023-03-02T12:33:49.767Z,74.10
2023-03-02T12:36:55.740Z,72.49
2023-03-02T12:40:35.041Z,72.53
2023-03-02T12:43:41.414Z,72.54
2023-03-02T12:46:49.062Z,73.63
2023-03-02T12:49:57.855Z,74.50
2023-03-02T12:53:02.506Z,74.44
2023-03-02T12:56:04.427Z,72.92
2023-03-02T12:59:06.334Z,73.21
2023-03-02T13:02:20.752Z,71.78
2023-03-02T13:05:25.781Z,71.62
2023-03-02T13:08:29.602Z,70.02
2023-03-02T13:11:33.890Z,71.95
2023-03-02T13:14:35.609Z,70.81
2023-03-02T13:17:37.353Z,72.31
2023-03-02T13:20:39.239Z,73.04
2023-03-02T13:23:49.705Z,72.82
2023-03-02T13:27:00.477Z,72.16
2023-03-02T13:30:22.440Z,73.66
2023-03-02T13:33:26.391Z,73.19
2023-03-02T13:36:36.275Z,72.61
2023-03-02T13:39:37.920Z,72.47
2023-03-02T13:42:40.903Z,73.92
2023-03-02T13:45:52.249Z,71.71
2023-03-02T13:49:09.172Z,71.73
2023-03-02T13:52:29.485Z,71.91
2023-03-02T13:55:31.364Z,71.40
2023-03-02T13:58:38.435Z,71.96
2023-03-02T14:01:44.197Z,71.14
2023-03-02T14:04:45.952Z,71.06
2023-03-02T14:07:47.812Z,72.14
2023-03-02T14:10:52.109Z,72.69
2023-03-02T14:13:55.014Z,73.29
2023-03-02T14:16:56.763Z,74.08
2023-03-02T14:19:58.383Z,71.69
2023-03-02T14:23:03.467Z,71.46
2023-03-02T14:26:32.336Z,71.40
2023-03-02T14:29:39.033Z,71.69
2023-03-02T14:32:40.742Z,70.59
2023-03-02T14:35:43.891Z,70.72
2023-03-02T14:38:45.542Z,73.17
2023-03-02T14:41:53.722Z,72.73
2023-03-02T14:44:55.540Z,72.46
2023-03-02T14:47:57.389Z,72.00
2023-03-02T14:51:02.668Z,72.46
2023-03-02T14:54:08.093Z,71.73
2023-03-02T14:57:17.865Z,70.39
2023-03-02T15:00:19.978Z,70.30
2023-03-02T15:03:25.695Z,70.17
2023-03-02T15:06:30.084Z,70.32
2023-03-02T15:09:31.847Z,71.72
2023-03-02T15:12:34.046Z,71.94
2023-03-02T15:15:36.631Z,71.26
2023-03-02T15:18:39.183Z,70.92
2023-03-02T15:21:44.769Z,70.55
2023-03-02T15:24:46.550Z,70.61
2023-03-02T15:27:48.706Z,70.17
2023-03-02T15:30:50.278Z,70.48
2023-03-02T15:33:52.125Z,70.86
2023-03-02T15:36:53.765Z,70.40
2023-03-02T15:39:56.318Z,70.82
2023-03-02T15:42:59.173Z,72.19
2023-03-02T15:46:02.244Z,71.09
2023-03-02T15:49:03.871Z,70.30
2023-03-02T15:52:05.516Z,71.94
2023-03-02T15:55:07.436Z,70.91
2023-03-02T15:58:09.124Z,70.84
2023-03-02T16:01:11.936Z,69.65
2023-03-02T16:04:13.745Z,70.86
2023-03-02T16:07:15.375Z,71.62
2023-03-02T16:10:18.529Z,72.11
2023-03-02T16:13:20.089Z,71.37
2023-03-02T16:16:22.542Z,72.30
2023-03-02T16:19:24.304Z,71.97
2023-03-02T16:22:25.950Z,71.77
2023-03-02T16:25:28.923Z,71.87
2023-03-02T16:28:30.552Z,71.71
2023-03-02T16:31:33.773Z,71.38
2023-03-02T16:34:35.921Z,71.51
2023-03-02T16:37:37.611Z,72.49
2023-03-02T16:40:40.231Z,73.19
2023-03-02T16:43:46.181Z,74.24
2023-03-02T16:46:47.867Z,75.56
2023-03-02T16:49:49.457Z,76.58
2023-03-02T16:52:51.209Z,76.97
2023-03-02T16:55:52.906Z,78.29
2023-03-02T16:58:55.646Z,79.06
2023-03-02T17:01:57.484Z,78.14
2023-03-02T17:04:59.092Z,78.08
2023-03-02T17:08:02.744Z,78.32
2023-03-02T17:11:04.598Z,78.85
2023-03-02T17:14:06.222Z,79.51
2023-03-02T17:17:08.005Z,79.77
2023-03-02T17:20:11.548Z,79.56
2023-03-02T17:23:14.302Z,79.25
2023-03-02T17:26:16.814Z,79.62
2023-03-02T17:29:18.676Z,80.33
2023-03-02T17:32:23.744Z,80.32
2023-03-02T17:35:25.462Z,80.76
2023-03-02T17:38:27.134Z,81.34
2023-03-02T17:41:28.851Z,81.41
2023-03-02T17:44:33.060Z,81.81
2023-03-02T17:47:35.746Z,82.71
2023-03-02T17:50:37.444Z,82.75
2023-03-02T17:53:39.318Z,82.27
2023-03-02T17:56:41.222Z,82.50
2023-03-02T17:59:42.929Z,82.70
2023-03-02T18:02:44.644Z,82.98
2023-03-02T18:05:46.270Z,83.95
2023-03-02T18:08:49.631Z,84.09
2023-03-02T18:11:51.340Z,84.11
2023-03-02T18:14:52.916Z,84.32
2023-03-02T18:17:54.620Z,84.58
2023-03-02T18:20:56.281Z,84.71
2023-03-02T18:23:58.116Z,84.92
2023-03-02T18:26:59.805Z,85.06
2023-03-02T18:30:01.489Z,85.43
2023-03-02T18:33:03.472Z,85.39
2023-03-02T18:36:05.487Z,85.35
2023-03-02T18:39:07.247Z,85.15
2023-03-02T18:42:10.532Z,85.74
2023-03-02T18:45:32.587Z,85.69
2023-03-02T18:48:34.681Z,85.99
2023-03-02T18:51:36.379Z,86.56
2023-03-02T18:54:38.847Z,86.50
2023-03-02T18:57:40.535Z,86.59
2023-03-02T19:00:42.316Z,86.43
2023-03-02T19:03:45.904Z,86.54
2023-03-02T19:06:48.224Z,86.83
2023-03-02T19:09:50.039Z,87.07
2023-03-02T19:12:51.742Z,87.41
2023-03-02T19:15:54.861Z,87.54
2023-03-02T19:18:56.627Z,88.19
2023-03-02T19:21:58.923Z,88.07
2023-03-02T19:25:00.607Z,87.88
2023-03-02T19:28:02.409Z,87.83
2023-03-02T19:31:09.362Z,87.29
2023-03-02T19:34:11.133Z,87.48
2023-03-02T19:37:13.101Z,87.77
2023-03-02T19:40:17.439Z,87.47
2023-03-02T19:43:20.388Z,87.64
2023-03-02T19:46:22.161Z,87.78
2023-03-02T19:49:23.842Z,88.53
2023-03-02T19:52:26.101Z,88.96
2023-03-02T19:55:27.792Z,90.22
2023-03-02T19:58:32.309Z,90.78
2023-03-02T20:01:34.010Z,90.99
2023-03-02T20:04:35.720Z,90.35
2023-03-02T20:07:39.785Z,90.95
2023-03-02T20:10:46.228Z,90.17
2023-03-02T20:13:53.035Z,90.47
2023-03-02T20:16:54.895Z,90.77
2023-03-02T20:19:57.952Z,90.59
2023-03-02T20:23:00.324Z,91.37
2023-03-02T20:26:02.182Z,91.94
2023-03-02T20:29:05.289Z,92.32
2023-03-02T20:32:09.052Z,93.08
2023-03-02T20:35:13.194Z,92.83
2023-03-02T20:38:29.153Z,93.07
2023-03-02T20:41:31.661Z,91.78
2023-03-02T20:44:33.966Z,91.28
2023-03-02T20:47:36.095Z,91.52
2023-03-02T20:50:38.249Z,92.01
2023-03-02T20:53:39.915Z,91.16
2023-03-02T20:56:42.163Z,90.62
2023-03-02T20:59:45.934Z,90.44
2023-03-02T21:02:48.402Z,89.71
2023-03-02T21:05:50.056Z,87.76
2023-03-02T21:08:52.657Z,86.22
2023-03-02T21:11:54.868Z,85.54
2023-03-02T21:14:56.760Z,86.10
2023-03-02T21:17:59.310Z,85.69
2023-03-02T21:21:04.593Z,85.44
2023-03-02T21:24:07.133Z,84.97
2023-03-02T21:27:08.899Z,85.79
2023-03-02T21:30:16.408Z,86.02
2023-03-02T21:33:18.182Z,86.07
2023-03-02T21:36:22.868Z,86.39
2023-03-02T21:39:24.469Z,87.57
2023-03-02T21:42:26.259Z,87.90
2023-03-02T21:45:29.085Z,88.15
2023-03-02T21:48:30.973Z,88.69
2023-03-02T21:51:33.084Z,88.92
2023-03-02T21:54:34.964Z,88.79
2023-03-02T21:57:36.589Z,88.88
2023-03-02T22:00:39.667Z,88.90
2023-03-02T22:03:42.577Z,88.92
2023-03-02T22:06:44.276Z,88.76
2023-03-02T22:09:45.915Z,89.20
2023-03-02T22:12:53.183Z,89.97
2023-03-02T22:16:13.923Z,90.54
2023-03-02T22:19:26.347Z,90.60
2023-03-02T22:22:30.507Z,90.80
2023-03-02T22:25:32.090Z,90.02
2023-03-02T22:28:39.383Z,90.26
2023-03-02T22:31:45.963Z,90.92
2023-03-02T22:34:50.741Z,90.89
2023-03-02T22:38:01.519Z,91.10
2023-03-02T22:41:04.446Z,91.00
2023-03-02T22:44:15.236Z,90.44
2023-03-02T22:47:20.138Z,90.57
2023-03-02T22:50:26.975Z,90.93
2023-03-02T22:53:31.808Z,91.88
2023-03-02T22:56:38.896Z,92.53
2023-03-02T22:59:40.543Z,92.22
2023-03-02T23:02:44.404Z,92.23
2023-03-02T23:05:51.049Z,92.38
2023-03-02T23:08:54.523Z,91.44
2023-03-02T23:11:59.967Z,91.41
2023-03-02T23:15:02.153Z,91.09
2023-03-02T23:18:17.137Z,90.66
2023-03-02T23:21:23.128Z,90.54
2023-03-02T23:24:25.178Z,91.20
2023-03-02T23:27:27.775Z,91.01
2023-03-02T23:30:29.414Z,91.37
2023-03-02T23:33:31.077Z,91.11
2023-03-02T23:36:32.773Z,90.56
2023-03-02T23:39:34.544Z,91.33
2023-03-02T23:42:36.214Z,91.44
2023-03-02T23:45:39.892Z,90.97
2023-03-02T23:48:42.389Z,90.75
2023-03-02T23:51:44.774Z,90.27
2023-03-02T23:54:46.587Z,89.60
2023-03-02T23:57:48.202Z,89.50
